x

Santa Monica Basin - 33nm Wsw Of Santa Monica, Ca (46025) Wave Buoy

5:50am - Wed 23rd Apr 2014 All times are PDT. -7 hours from GMT.

  • Sig Wave height 5.9ft
  • Swell Direction
  • Peak Period 9s
  • Average Period 6s
  • Wind
    13mph, 16mph gusts
  • Sea Temp 61°f
  • 空気 Temp 59°f
  • Sea Pressure 1013mb
  • Santa Monica Basin - 33nm Wsw Of Santa Monica, Ca
  • Santa Monica Basin - 33nm Wsw Of Santa Monica, Ca

More Historic Weather Station data

Upgrade to MSW Pro to gain access to the past 30 days of data for over 8000 Wavebouys and Weather Stations around the globe.

Join Pro

Comparision Forecast

View Surf forecast
   
Wed 04/23 5:50am 6ft 9s 6s 13 16 mph 1013mb 61f 59f
4:50am 6ft 8s 6s 13 16 mph 1012.7mb 60f 59f
3:50am 6ft 12s 6s 13 16 mph 1012.8mb 61f 60f
2:50am 6ft 7s 6s 13 18 mph 1012.9mb 61f 60f
1:50am 6.5ft 13s 6s 11 13 mph 1013.2mb 61f 60f
12:50am 7ft 7s 6s 13 16 mph 1013.3mb 61f 60f
Tue 04/22 11:50pm 8ft 7s 6s 13 18 mph 1013.2mb 61f 60f
10:50pm 7ft 8s 6s 11 18 mph 1013.1mb 61f 60f
9:50pm 7ft 8s 6s 22 29 mph 1012.3mb 61f 60f
8:50pm 7ft 8s 6s 9 13 mph 1012.6mb 61f 61f
7:50pm 7ft 7s 6s 9 11 mph 1011.9mb 61f 61f
6:50pm 7ft 7s 6s 13 16 mph 1012mb 62f 60f
5:50pm 6ft 8s 6s 20 22 mph 1012.1mb 62f 59f
4:50pm 6.5ft 8s 6s 18 22 mph 1012.7mb 62f 60f
2:50pm 5.5ft 6s 6s 11 13 mph 1013.7mb 62f 60f
1:50pm 5.5ft 13s 6s 13 18 mph 1014.2mb 62f 59f
12:50pm 5.5ft 12s 6s 9 11 mph 1014.8mb 62f 60f
11:50am 5ft 13s 6s 4 7 mph 1015.3mb 62f 59f
10:50am 5.5ft 7s 6s 7 11 mph 1015.5mb 61f 58f
9:50am 5ft 14s 7s 13 16 mph 1015.2mb 61f 58f
8:50am 5ft 13s 7s 9 11 mph 1015.1mb 61f 58f
7:50am 5ft 14s 7s 4
mph
1014.8mb 61f 58f
6:50am 4ft 13s 7s 2 4 mph 1014.4mb 61f 58f
5:50am 4ft 14s 7s 2 4 mph 1013.9mb 61f 58f
4:50am 4ft 14s 8s 4 9 mph 1013.6mb 61f 58f
3:50am 4ft 14s 7s 7 9 mph 1013.7mb 61f 58f
2:50am 4.5ft 13s 7s  -  2 mph 1014.1mb 61f 58f
1:50am 4ft 14s 8s 7 11 mph 1014.2mb 61f 59f
12:50am 4ft 14s 8s 9
mph
1014.4mb 61f 58f
Mon 04/21 11:50pm 4ft 14s 8s 7 9 mph 1014.7mb 61f 58f
10:50pm 4ft 14s 9s  -  2 mph 1014.8mb 61f 59f
9:50pm 3.5ft 15s 8s 4 7 mph 1015.3mb 61f 59f
8:50pm 3.5ft 14s 8s 4 7 mph 1014.7mb 61f 59f
7:50pm 3.5ft 15s 9s 7 9 mph 1014.3mb 61f 59f
6:50pm 4.5ft 15s 9s 7 9 mph 1014.4mb 62f 58f
5:50pm 4ft 14s 9s 7 9 mph 1014.5mb 63f 59f
4:50pm 4ft 15s 9s 4 7 mph 1014.7mb 62f 60f
3:50pm 4.5ft 15s 9s 7
mph
1015.4mb 63f 59f
2:50pm 4ft 14s 9s 7 9 mph 1016.1mb 62f 59f
1:50pm 4.5ft 15s 9s 7 9 mph 1016.7mb 62f 59f
12:50pm 4ft 14s 8s 7
mph
1017.3mb 62f 59f
11:50am 4ft 15s 8s 7 9 mph 1017.9mb 62f 59f
10:50am 4.5ft 15s 9s 7 9 mph 1017.7mb 61f 59f
9:50am 4ft 15s 9s 9 11 mph 1017.5mb 61f 58f
8:50am 4ft 16s 8s 7 11 mph 1017.4mb 61f 58f
7:50am 4ft 15s 9s 7 11 mph 1017.1mb 61f 57f
6:50am 4.5ft 15s 9s 9 11 mph 1016.8mb 61f 58f
5:50am 4.5ft 15s 10s 7 11 mph 1016.4mb 60f 58f
4:50am 5ft 16s 10s 7
mph
1016.1mb 61f 58f
3:50am 5ft 15s 9s 2 4 mph 1016.4mb 61f 58f
2:50am 4.5ft 15s 8s 7
mph
1016.3mb 61f 58f
12:50am 4.5ft 15s 8s  -  2 mph 1017mb 61f 59f
Sun 04/20 11:50pm 4.5ft 16s 8s 2 4 mph 1016.9mb 61f 59f
10:50pm 3.5ft 16s 7s 2 4 mph 1016.8mb 61f 59f
9:50pm 3.5ft 16s 8s 7 9 mph 1016.9mb 61f 60f
8:50pm 3.5ft 16s 8s 9
mph
1016.6mb 61f 60f
7:50pm 3.5ft 16s 7s 11 13 mph 1016.3mb 62f 60f
6:50pm 3.5ft 15s 7s 11 13 mph 1016.1mb 62f 60f
5:50pm 4ft 15s 8s 11 13 mph 1016.3mb 62f 62f
4:50pm 3.5ft 16s 7s 7
mph
1016mb 64f 61f
3:50pm 3.5ft 14s 7s 9
mph
1016.6mb 64f 61f
2:50pm 3.5ft 16s 7s 7 9 mph 1017.3mb 63f 61f
1:50pm 3.5ft 16s 7s 7
mph
1017.6mb 64f 60f
12:50pm 3.5ft 16s 6s 2
mph
1017.8mb 62f 60f
11:50am 4ft 15s 6s 4 7 mph 1018.2mb 62f 60f
10:50am 4.5ft 16s 7s 4 7 mph 1018.5mb 61f 61f
9:50am 4ft 16s 7s 7 9 mph 1018mb 61f 60f
8:50am 4.5ft 7s 7s 4
mph
1017.7mb 60f 61f
7:50am 4.5ft 8s 7s 4 7 mph 1017.5mb 60f 59f
6:50am 5ft 9s 7s 7 9 mph 1016.9mb 60f 59f
5:50am 4.5ft 8s 7s 9 11 mph 1016.1mb 61f 59f
4:50am 4.5ft 8s 7s 9 11 mph 1016.1mb 61f 59f
3:50am 4ft 7s 7s 11
mph
1016.2mb 61f 59f
2:50am 4.5ft 7s 6s 4 7 mph 1016.4mb 61f 59f
1:50am 4.5ft 7s 6s 2 4 mph 1016.6mb 61f 59f
12:50am 5ft 7s 6s 9 11 mph 1016.7mb 61f 60f
Sat 04/19 11:50pm 4.5ft 7s 6s 7 9 mph 1016.7mb 61f 60f
10:50pm 4.5ft 6s 6s 4 7 mph 1016.3mb 61f 60f
9:50pm 4.5ft 15s 6s 2
mph
1016.1mb 61f 59f
8:50pm 4.5ft 6s 6s 4
mph
1015.4mb 61f 59f
7:50pm 4.5ft 15s 6s 4 7 mph 1015.1mb 61f 60f
6:50pm 4ft 15s 6s 9
mph
1015.1mb 62f 60f
5:50pm 3.5ft 15s 6s 9 11 mph 1015.5mb 62f 60f
4:50pm 3.5ft 15s 6s 11
mph
1015.4mb 62f 60f
3:50pm 3.5ft 16s 7s 9 11 mph 1015.7mb 62f 59f
2:50pm 3.5ft 15s 7s 9
mph
1015.7mb 62f 60f